Time;durP1;ratioP1;P1;durP2;ratioP2;P2;SDS_P1;SDS_P2;PMS_P1;PMS_P2;Temp;Humidity;BMP_temperature;BMP_pressure;BME280_temperature;BME280_humidity;BME280_pressure;Samples;Min_cycle;Max_cycle;Signal;HPM_P1;HPM_P2
2023/06/27 00:02:02;;;;;;;;;;;;;;;22.55;30.09;97623.06;4965405;28;992;-80
2023/06/27 00:04:28;;;;;;;;;;;;;;;22.65;29.86;97621.88;4948850;28;1037;-80
2023/06/27 00:06:53;;;;;;;;;;;;;;;22.33;30.47;97623.06;4949414;28;1046;-80
2023/06/27 00:09:19;;;;;;;;;;;;;;;22.38;30.44;97624.47;4944631;29;1985;-79
2023/06/27 00:11:44;;;;;;;;;;;;;;;22.52;30.12;97629.66;4946523;29;1424;-80
2023/06/27 00:14:10;;;;;;;;;;;;;;;22.26;30.54;97621.25;4945658;29;948;-80
2023/06/27 00:16:36;;;;;;;;;;;;;;;22.38;30.42;97624.47;4961893;29;955;-80
2023/06/27 00:19:04;;;;;;;;;;;;;;;22.36;30.33;97622.13;4928161;29;1978;-79
2023/06/27 00:21:30;;;;;;;;;;;;;;;22.41;30.30;97617.91;4946300;29;830;-80
2023/06/27 00:23:56;;;;;;;;;;;;;;;22.40;29.97;97622.00;4944911;29;1420;-79
2023/06/27 00:26:22;;;;;;;;;;;;;;;22.44;29.95;97622.66;4978097;28;856;-80
2023/06/27 00:28:47;;;;;;;;;;;;;;;22.58;29.82;97617.25;4960566;29;1492;-79
2023/06/27 00:31:13;;;;;;;;;;;;;;;22.55;29.69;97617.41;4982833;28;902;-80
2023/06/27 00:33:38;;;;;;;;;;;;;;;22.25;30.62;97616.81;4983315;28;1234;-79
2023/06/27 00:36:09;;;;;;;;;;;;;;;22.47;29.96;97624.56;4984682;28;1131;-80
2023/06/27 00:38:35;;;;;;;;;;;;;;;22.58;29.94;97619.28;4969342;28;2042;-80
2023/06/27 00:41:00;;;;;;;;;;;;;;;22.55;29.71;97617.41;5038275;28;922;-80
2023/06/27 00:43:29;;;;;;;;;;;;;;;22.51;29.85;97617.50;5022468;28;984;-80
2023/06/27 00:45:55;;;;;;;;;;;;;;;22.57;29.85;97612.03;5007950;28;1089;-80
2023/06/27 00:48:20;;;;;;;;;;;;;;;22.39;30.28;97615.53;4986184;28;1124;-80
2023/06/27 00:50:46;;;;;;;;;;;;;;;22.22;30.22;97616.94;5003896;28;929;-80
2023/06/27 00:53:11;;;;;;;;;;;;;;;22.23;30.33;97619.34;4985712;28;1708;-80
2023/06/27 00:55:39;;;;;;;;;;;;;;;22.53;29.81;97606.50;4987510;28;931;-79
2023/06/27 00:58:08;;;;;;;;;;;;;;;22.39;30.23;97620.41;5002791;28;1918;-80
2023/06/27 01:00:34;;;;;;;;;;;;;;;22.33;30.15;97617.38;4987799;28;875;-80
2023/06/27 01:02:59;;;;;;;;;;;;;;;22.44;29.80;97612.13;5018637;28;966;-80
2023/06/27 01:05:25;;;;;;;;;;;;;;;22.31;30.28;97603.66;5003321;28;1172;-80
2023/06/27 01:08:09;;;;;;;;;;;;;;;22.35;29.85;97604.31;4959457;28;1908;-80
2023/06/27 01:10:55;;;;;;;;;;;;;;;22.36;30.19;97617.22;4977927;28;1688;-80
2023/06/27 01:13:28;;;;;;;;;;;;;;;22.36;29.92;97613.59;4962690;28;1080;-80
2023/06/27 01:15:55;;;;;;;;;;;;;;;22.35;30.06;97610.00;4964907;28;1269;-79
2023/06/27 01:18:21;;;;;;;;;;;;;;;22.27;30.07;97613.53;4964777;28;1973;-80
2023/06/27 01:20:47;;;;;;;;;;;;;;;22.55;29.69;97606.06;4984665;28;986;-79
2023/06/27 01:23:18;;;;;;;;;;;;;;;22.25;29.94;97611.16;4981423;28;1679;-80
2023/06/27 01:25:44;;;;;;;;;;;;;;;22.21;30.11;97610.50;4983925;28;917;-80
2023/06/27 01:28:14;;;;;;;;;;;;;;;22.34;29.88;97616.91;4966616;28;974;-80
2023/06/27 01:30:40;;;;;;;;;;;;;;;22.39;29.93;97614.75;4967144;28;1244;-80
2023/06/27 01:33:14;;;;;;;;;;;;;;;22.40;29.89;97613.50;4966454;28;1132;-80
2023/06/27 01:35:40;;;;;;;;;;;;;;;22.47;29.73;97611.19;4983389;28;1133;-79
2023/06/27 01:38:08;;;;;;;;;;;;;;;22.37;30.05;97612.34;4989594;28;1947;-80
2023/06/27 01:40:36;;;;;;;;;;;;;;;22.50;29.86;97615.16;5023681;28;877;-80
2023/06/27 01:43:03;;;;;;;;;;;;;;;22.50;29.81;97620.81;5006771;28;1127;-80
2023/06/27 01:45:29;;;;;;;;;;;;;;;22.25;30.04;97625.31;4991655;28;1070;-80
2023/06/27 01:47:55;;;;;;;;;;;;;;;22.43;29.78;97621.06;5023466;28;1011;-80
2023/06/27 01:50:20;;;;;;;;;;;;;;;22.53;29.70;97608.53;5006865;28;1156;-79
2023/06/27 01:52:46;;;;;;;;;;;;;;;22.24;30.04;97615.25;5022884;28;1567;-80
2023/06/27 01:55:11;;;;;;;;;;;;;;;22.39;29.58;97621.22;4978909;28;1713;-80
2023/06/27 01:57:37;;;;;;;;;;;;;;;22.57;29.50;97618.50;4967236;28;1964;-80
2023/06/27 02:00:04;;;;;;;;;;;;;;;22.39;29.99;97620.41;4967196;28;1125;-80
2023/06/27 02:02:41;;;;;;;;;;;;;;;22.31;29.87;97617.03;4968797;28;1074;-80
2023/06/27 02:05:07;;;;;;;;;;;;;;;22.66;29.12;97617.00;4982847;28;1154;-80
2023/06/27 02:07:35;;;;;;;;;;;;;;;22.56;29.22;97607.63;4951711;28;1438;-80
2023/06/27 02:10:00;;;;;;;;;;;;;;;22.42;29.43;97608.94;4965692;28;1832;-80
2023/06/27 02:12:26;;;;;;;;;;;;;;;22.33;29.58;97611.72;4929267;29;1773;-80
2023/06/27 02:14:51;;;;;;;;;;;;;;;22.57;29.17;97614.88;4944227;29;1341;-81
2023/06/27 02:17:17;;;;;;;;;;;;;;;22.30;29.65;97607.75;4872800;29;1911;-80
2023/06/27 02:19:42;;;;;;;;;;;;;;;22.33;29.41;97611.72;4871865;29;1210;-80
2023/06/27 02:22:08;;;;;;;;;;;;;;;22.22;29.89;97612.06;4888784;29;963;-80
2023/06/27 02:24:33;;;;;;;;;;;;;;;22.25;29.89;97611.16;4887765;29;1969;-79
2023/06/27 02:27:00;;;;;;;;;;;;;;;22.28;29.72;97615.91;4926149;29;1317;-80
2023/06/27 02:29:26;;;;;;;;;;;;;;;22.26;29.55;97624.06;4943813;29;860;-80
2023/06/27 02:31:52;;;;;;;;;;;;;;;22.09;30.14;97623.41;4960688;29;1151;-80
2023/06/27 02:34:17;;;;;;;;;;;;;;;22.40;29.39;97624.84;4959742;29;1135;-79
2023/06/27 02:36:43;;;;;;;;;;;;;;;22.30;29.85;97623.97;4944811;29;902;-80
2023/06/27 02:39:08;;;;;;;;;;;;;;;22.30;29.49;97613.41;4959469;29;1930;-80
2023/06/27 02:41:34;;;;;;;;;;;;;;;22.27;29.76;97622.81;4960380;29;1904;-80
2023/06/27 02:44:01;;;;;;;;;;;;;;;22.37;29.49;97623.69;4977101;28;1259;-80
2023/06/27 02:46:27;;;;;;;;;;;;;;;22.10;30.04;97627.03;4999978;28;847;-80
2023/06/27 02:48:52;;;;;;;;;;;;;;;22.33;29.74;97629.50;5028239;28;1124;-80
2023/06/27 02:51:19;;;;;;;;;;;;;;;22.40;29.57;97627.66;5023241;28;1243;-80
2023/06/27 02:53:45;;;;;;;;;;;;;;;22.26;29.82;97632.56;5006195;28;838;-80
2023/06/27 02:56:10;;;;;;;;;;;;;;;22.32;29.62;97630.72;5026290;28;1772;-78
2023/06/27 02:58:38;;;;;;;;;;;;;;;22.17;30.12;97626.03;5024628;28;1927;-79
2023/06/27 03:01:06;;;;;;;;;;;;;;;22.20;30.06;97620.25;5009512;28;1550;-80
2023/06/27 03:03:35;;;;;;;;;;;;;;;22.35;29.58;97631.88;5023315;28;1350;-80
2023/06/27 03:06:03;;;;;;;;;;;;;;;22.21;29.86;97636.00;5008117;28;1836;-80
2023/06/27 03:08:30;;;;;;;;;;;;;;;22.40;29.70;97625.63;5057490;28;1240;-80
2023/06/27 03:10:56;;;;;;;;;;;;;;;22.42;29.41;97627.97;5026690;28;1150;-79
2023/06/27 03:13:22;;;;;;;;;;;;;;;22.01;30.05;97624.91;5007757;28;1014;-80
2023/06/27 03:15:47;;;;;;;;;;;;;;;21.94;30.14;97632.88;5025371;28;1890;-79
2023/06/27 03:18:13;;;;;;;;;;;;;;;22.22;29.66;97640.41;5024008;28;2026;-80
2023/06/27 03:20:39;;;;;;;;;;;;;;;22.05;30.01;97631.25;5042228;28;1242;-80
2023/06/27 03:23:04;;;;;;;;;;;;;;;22.39;29.48;97638.22;5042037;28;772;-80
2023/06/27 03:25:31;;;;;;;;;;;;;;;22.32;29.40;97636.41;5041700;28;1378;-81
2023/06/27 03:27:56;;;;;;;;;;;;;;;22.31;29.60;97637.66;5058153;28;1115;-80
2023/06/27 03:30:22;;;;;;;;;;;;;;;22.31;29.74;97620.66;5041060;28;1679;-80
2023/06/27 03:32:47;;;;;;;;;;;;;;;22.25;29.87;97633.84;5024606;28;1811;-79
2023/06/27 03:35:14;;;;;;;;;;;;;;;22.39;29.63;97631.75;5008106;28;1516;-80
2023/06/27 03:37:39;;;;;;;;;;;;;;;22.47;29.49;97635.91;5025704;28;1907;-80
2023/06/27 03:40:05;;;;;;;;;;;;;;;22.49;29.27;97631.38;5024890;28;1230;-80
2023/06/27 03:42:31;;;;;;;;;;;;;;;22.30;29.54;97630.41;5024781;28;1960;-80
2023/06/27 03:44:56;;;;;;;;;;;;;;;22.19;29.81;97629.22;5007944;28;1229;-79
2023/06/27 03:47:24;;;;;;;;;;;;;;;21.95;30.50;97637.28;5009540;28;1250;-80
2023/06/27 03:49:49;;;;;;;;;;;;;;;22.08;30.21;97635.22;5008598;28;1349;-79
2023/06/27 03:52:15;;;;;;;;;;;;;;;22.33;29.87;97638.00;5009377;28;1761;-80
2023/06/27 03:54:40;;;;;;;;;;;;;;;22.26;29.89;97635.41;5040751;28;1572;-80
2023/06/27 03:57:07;;;;;;;;;;;;;;;22.19;29.96;97646.22;5025309;28;1898;-80
2023/06/27 03:59:32;;;;;;;;;;;;;;;22.45;29.46;97641.25;5040407;28;1464;-79
2023/06/27 04:01:58;;;;;;;;;;;;;;;22.33;29.77;97640.84;5042026;28;1175;-80
2023/06/27 04:04:24;;;;;;;;;;;;;;;22.27;29.73;97642.66;5008258;28;1331;-80
2023/06/27 04:06:50;;;;;;;;;;;;;;;22.45;29.58;97646.91;5058707;28;954;-79
2023/06/27 04:09:15;;;;;;;;;;;;;;;22.20;30.14;97648.59;5057594;28;794;-79
2023/06/27 04:11:41;;;;;;;;;;;;;;;22.29;30.06;97650.72;5041971;28;1127;-79
2023/06/27 04:14:06;;;;;;;;;;;;;;;22.24;29.99;97640.75;5023875;28;1257;-80
2023/06/27 04:16:32;;;;;;;;;;;;;;;22.23;29.90;97644.84;5058205;28;920;-80
2023/06/27 04:18:57;;;;;;;;;;;;;;;22.28;30.09;97644.25;5056174;28;1993;-80
2023/06/27 04:21:23;;;;;;;;;;;;;;;22.26;30.04;97646.75;5025691;28;1128;-80
2023/06/27 04:23:54;;;;;;;;;;;;;;;22.39;29.57;97648.75;5056171;28;829;-79
2023/06/27 04:26:20;;;;;;;;;;;;;;;22.46;29.75;97654.16;5016702;28;1174;-78
2023/06/27 04:28:47;;;;;;;;;;;;;;;22.35;29.60;97655.34;4983261;28;1128;-79
2023/06/27 04:31:12;;;;;;;;;;;;;;;22.46;29.54;97665.50;5001327;28;893;-79
2023/06/27 04:33:39;;;;;;;;;;;;;;;22.43;29.84;97666.41;4998859;28;1247;-79
2023/06/27 04:36:08;;;;;;;;;;;;;;;22.33;29.87;97663.53;5001464;28;1140;-79
2023/06/27 04:38:37;;;;;;;;;;;;;;;22.49;29.46;97667.44;4978761;28;1914;-79
2023/06/27 04:41:09;;;;;;;;;;;;;;;22.43;29.85;97660.75;4965837;28;1088;-79
2023/06/27 04:43:35;;;;;;;;;;;;;;;22.32;29.75;97667.59;4963661;28;1136;-79
2023/06/27 04:46:01;;;;;;;;;;;;;;;22.24;29.91;97663.44;4949555;28;957;-79
2023/06/27 04:48:26;;;;;;;;;;;;;;;22.27;30.03;97653.19;4963903;28;907;-79
2023/06/27 04:50:53;;;;;;;;;;;;;;;22.23;30.25;97664.69;4948771;28;891;-78
2023/06/27 04:53:22;;;;;;;;;;;;;;;22.52;29.60;97652.31;4963643;28;955;-78
2023/06/27 04:55:48;;;;;;;;;;;;;;;22.51;29.32;97662.09;4965346;28;1032;-78
2023/06/27 04:58:13;;;;;;;;;;;;;;;22.51;29.51;97662.88;4997396;28;1936;-78
2023/06/27 05:00:39;;;;;;;;;;;;;;;22.49;29.86;97661.78;5003316;28;874;-79
2023/06/27 05:03:04;;;;;;;;;;;;;;;22.36;29.73;97664.63;5002063;28;926;-79
2023/06/27 05:05:33;;;;;;;;;;;;;;;22.53;29.72;97668.09;4986380;28;1301;-78
2023/06/27 05:08:03;;;;;;;;;;;;;;;22.30;30.08;97669.31;4986166;28;1198;-78
2023/06/27 05:10:32;;;;;;;;;;;;;;;22.30;29.99;97670.09;5004970;28;1179;-79
2023/06/27 05:12:58;;;;;;;;;;;;;;;22.31;30.03;97668.84;5055665;28;782;-79
2023/06/27 05:15:23;;;;;;;;;;;;;;;22.33;30.05;97669.19;5024034;28;1363;-78
2023/06/27 05:17:52;;;;;;;;;;;;;;;22.33;30.05;97666.34;5040614;28;1959;-78
2023/06/27 05:20:18;;;;;;;;;;;;;;;22.32;29.95;97680.97;5002184;28;1262;-79
2023/06/27 05:22:43;;;;;;;;;;;;;;;22.42;29.76;97676.19;5036825;28;863;-78
2023/06/27 05:25:09;;;;;;;;;;;;;;;22.49;29.38;97678.78;5021307;28;858;-79
2023/06/27 05:27:34;;;;;;;;;;;;;;;22.53;29.57;97687.94;5019566;28;1258;-79
2023/06/27 05:30:00;;;;;;;;;;;;;;;22.26;30.01;97686.41;5018796;28;881;-79
2023/06/27 05:32:25;;;;;;;;;;;;;;;22.19;30.04;97692.34;5006710;28;1202;-79
2023/06/27 05:34:51;;;;;;;;;;;;;;;22.12;30.05;97684.06;5022142;28;1065;-79
2023/06/27 05:37:16;;;;;;;;;;;;;;;22.19;29.85;97691.56;4974301;28;1961;-79
2023/06/27 05:39:42;;;;;;;;;;;;;;;22.12;30.09;97689.72;5005723;28;848;-79
2023/06/27 05:42:07;;;;;;;;;;;;;;;22.49;29.28;97687.28;5023314;28;878;-79
2023/06/27 05:44:33;;;;;;;;;;;;;;;22.52;29.27;97686.34;5021968;28;953;-79
2023/06/27 05:46:58;;;;;;;;;;;;;;;22.43;29.30;97683.44;4990482;28;1045;-79
2023/06/27 05:49:24;;;;;;;;;;;;;;;22.56;29.52;97681.34;5022532;28;906;-80
2023/06/27 05:51:49;;;;;;;;;;;;;;;22.35;29.64;97688.56;5022595;28;913;-79
2023/06/27 05:54:15;;;;;;;;;;;;;;;22.30;29.58;97687.09;4989618;28;1140;-79
2023/06/27 05:56:40;;;;;;;;;;;;;;;22.22;29.99;97690.63;4974252;28;1092;-79
2023/06/27 05:59:06;;;;;;;;;;;;;;;22.26;29.85;97686.41;5023483;28;1977;-79
2023/06/27 06:01:32;;;;;;;;;;;;;;;22.45;29.43;97680.94;5040882;28;923;-79
2023/06/27 06:03:57;;;;;;;;;;;;;;;22.54;29.45;97684.66;5023058;28;806;-79
2023/06/27 06:06:23;;;;;;;;;;;;;;;22.54;29.43;97686.69;5024895;28;1066;-79
2023/06/27 06:08:48;;;;;;;;;;;;;;;22.52;29.37;97686.34;5038716;28;1156;-79
2023/06/27 06:11:14;;;;;;;;;;;;;;;22.61;29.17;97689.28;5040693;28;1007;-79
2023/06/27 06:13:39;;;;;;;;;;;;;;;22.57;29.50;97688.59;5021282;28;981;-80
2023/06/27 06:16:05;;;;;;;;;;;;;;;22.40;29.57;97678.69;5024206;28;1184;-79
2023/06/27 06:18:30;;;;;;;;;;;;;;;22.49;29.65;97684.44;5005184;28;1985;-79
2023/06/27 06:20:56;;;;;;;;;;;;;;;22.62;29.17;97688.00;5024997;28;882;-79
2023/06/27 06:23:21;;;;;;;;;;;;;;;22.56;29.30;97689.84;5005352;28;1573;-79
2023/06/27 06:25:47;;;;;;;;;;;;;;;22.48;29.58;97685.69;5006979;28;949;-79
2023/06/27 06:28:12;;;;;;;;;;;;;;;22.54;29.36;97683.88;4988517;28;1244;-79
2023/06/27 06:30:38;;;;;;;;;;;;;;;22.37;29.72;97686.06;4990431;28;1127;-78
2023/06/27 06:33:03;;;;;;;;;;;;;;;22.49;29.66;97692.97;5021845;28;1012;-79
2023/06/27 06:35:29;;;;;;;;;;;;;;;22.36;29.93;97690.94;5005502;28;1245;-79
2023/06/27 06:37:54;;;;;;;;;;;;;;;22.60;29.47;97693.38;5004434;28;1952;-79
2023/06/27 06:40:20;;;;;;;;;;;;;;;22.46;29.73;97693.88;5021528;28;921;-79
2023/06/27 06:42:45;;;;;;;;;;;;;;;22.49;29.56;97688.06;5004413;28;1048;-79
2023/06/27 06:45:11;;;;;;;;;;;;;;;22.59;29.21;97698.25;5021688;28;1008;-79
2023/06/27 06:47:36;;;;;;;;;;;;;;;22.34;29.86;97699.13;5005897;28;1009;-79
2023/06/27 06:50:02;;;;;;;;;;;;;;;22.50;29.48;97694.53;4988194;28;1081;-79
2023/06/27 06:52:28;;;;;;;;;;;;;;;22.39;29.92;97688.44;4969179;28;1177;-79
2023/06/27 06:54:53;;;;;;;;;;;;;;;22.55;29.47;97693.94;4970858;28;1113;-78
2023/06/27 06:57:19;;;;;;;;;;;;;;;22.22;30.02;97697.09;4982857;28;1912;-79
2023/06/27 06:59:45;;;;;;;;;;;;;;;22.26;30.13;97696.97;4981534;28;904;-79
2023/06/27 07:02:10;;;;;;;;;;;;;;;22.47;29.63;97701.91;4982510;28;1095;-79
2023/06/27 07:04:36;;;;;;;;;;;;;;;22.45;29.81;97692.28;4965404;28;1215;-79
2023/06/27 07:07:01;;;;;;;;;;;;;;;22.27;30.28;97699.34;4966555;28;1304;-79
2023/06/27 07:09:28;;;;;;;;;;;;;;;22.08;30.59;97691.88;4981259;28;869;-79
2023/06/27 07:11:54;;;;;;;;;;;;;;;22.32;30.22;97701.59;4982661;28;1012;-79
2023/06/27 07:14:20;;;;;;;;;;;;;;;22.59;29.56;97695.41;4981709;28;941;-79
2023/06/27 07:16:45;;;;;;;;;;;;;;;22.55;29.71;97696.78;4966355;28;917;-79
2023/06/27 07:19:11;;;;;;;;;;;;;;;22.55;29.70;97694.75;4964947;28;1980;-78
2023/06/27 07:21:37;;;;;;;;;;;;;;;22.56;29.67;97695.53;4982815;28;882;-79
2023/06/27 07:24:03;;;;;;;;;;;;;;;22.40;30.05;97695.69;5027891;28;1267;-79
2023/06/27 07:26:28;;;;;;;;;;;;;;;22.50;29.81;97700.22;4998438;28;1071;-79
2023/06/27 07:28:54;;;;;;;;;;;;;;;22.52;29.47;97698.47;4981160;28;1041;-79
2023/06/27 07:31:19;;;;;;;;;;;;;;;22.52;29.65;97698.47;4982362;28;869;-79
2023/06/27 07:33:45;;;;;;;;;;;;;;;22.56;29.85;97695.53;4981161;28;989;-80
2023/06/27 07:36:10;;;;;;;;;;;;;;;22.47;30.07;97698.28;4998282;28;1618;-80
2023/06/27 07:38:35;;;;;;;;;;;;;;;22.38;29.84;97703.84;4980721;28;1895;-80
2023/06/27 07:41:02;;;;;;;;;;;;;;;22.23;30.19;97704.34;4999052;28;887;-79
2023/06/27 07:43:27;;;;;;;;;;;;;;;22.46;29.89;97693.88;4960509;29;897;-80
2023/06/27 07:45:53;;;;;;;;;;;;;;;22.67;29.74;97701.59;4946443;29;1012;-79
2023/06/27 07:48:18;;;;;;;;;;;;;;;22.70;29.37;97703.53;4961025;29;1152;-79
2023/06/27 07:50:44;;;;;;;;;;;;;;;22.85;29.31;97704.59;4962432;29;965;-79
2023/06/27 07:53:09;;;;;;;;;;;;;;;22.70;29.71;97714.88;4944834;28;916;-79
2023/06/27 07:55:35;;;;;;;;;;;;;;;22.70;29.48;97714.88;4946009;29;1241;-80
2023/06/27 07:58:01;;;;;;;;;;;;;;;22.62;29.87;97714.31;4956187;29;1918;-80
2023/06/27 08:00:26;;;;;;;;;;;;;;;22.61;29.91;97714.78;4963165;29;1017;-79
2023/06/27 08:02:51;;;;;;;;;;;;;;;22.54;30.04;97707.34;4961482;29;903;-80
2023/06/27 08:05:18;;;;;;;;;;;;;;;22.78;29.36;97709.72;4961708;29;999;-79
2023/06/27 08:07:43;;;;;;;;;;;;;;;22.55;29.99;97703.25;4929515;29;1224;-79
2023/06/27 08:10:09;;;;;;;;;;;;;;;22.80;29.60;97716.53;4929580;29;1132;-79
2023/06/27 08:12:35;;;;;;;;;;;;;;;22.58;29.70;97707.19;4945969;29;1133;-80
2023/06/27 08:15:08;;;;;;;;;;;;;;;22.54;29.99;97712.22;5099492;27;1320;-79
2023/06/27 08:17:33;;;;;;;;;;;;;;;22.59;30.12;97714.47;5133580;28;948;-79
2023/06/27 08:19:59;;;;;;;;;;;;;;;22.55;30.13;97719.47;5115116;28;1132;-80
2023/06/27 08:22:25;;;;;;;;;;;;;;;22.61;30.01;97717.63;5100249;28;857;-79
2023/06/27 08:24:50;;;;;;;;;;;;;;;22.43;30.25;97717.44;5114092;28;1192;-79
2023/06/27 08:27:16;;;;;;;;;;;;;;;22.52;30.04;97715.50;5098746;28;1004;-79
2023/06/27 08:29:41;;;;;;;;;;;;;;;22.66;30.03;97714.22;5098238;28;1100;-80
2023/06/27 08:32:07;;;;;;;;;;;;;;;22.54;29.97;97715.06;5100058;28;882;-79
2023/06/27 08:34:36;;;;;;;;;;;;;;;22.60;30.05;97704.72;5131295;28;1886;-80
2023/06/27 08:37:02;;;;;;;;;;;;;;;22.75;29.59;97713.50;5133039;28;872;-79
2023/06/27 08:39:28;;;;;;;;;;;;;;;22.67;30.11;97710.13;5131446;28;855;-79
2023/06/27 08:41:55;;;;;;;;;;;;;;;22.73;29.80;97716.78;5100046;28;948;-79
2023/06/27 08:44:20;;;;;;;;;;;;;;;22.52;30.21;97714.69;5113626;28;954;-80
2023/06/27 08:46:46;;;;;;;;;;;;;;;22.69;29.86;97710.47;5133483;28;831;-80
2023/06/27 08:49:13;;;;;;;;;;;;;;;22.65;30.06;97709.78;5114272;28;1132;-79
2023/06/27 08:51:39;;;;;;;;;;;;;;;22.82;29.63;97716.88;5116009;28;882;-80
2023/06/27 08:54:08;;;;;;;;;;;;;;;22.75;29.92;97705.00;5102807;28;1891;-80
2023/06/27 08:56:34;;;;;;;;;;;;;;;22.45;30.44;97714.97;5121401;28;969;-79
2023/06/27 08:59:03;;;;;;;;;;;;;;;22.28;30.61;97700.94;5095325;28;962;-79
2023/06/27 09:01:31;;;;;;;;;;;;;;;22.54;30.14;97700.88;5080497;28;1054;-80
2023/06/27 09:03:56;;;;;;;;;;;;;;;22.61;30.11;97707.06;5046300;28;1114;-80
2023/06/27 09:06:22;;;;;;;;;;;;;;;22.95;29.65;97707.53;5062942;28;1070;-80
2023/06/27 09:08:47;;;;;;;;;;;;;;;22.92;29.84;97705.63;5045497;28;1275;-79
2023/06/27 09:11:13;;;;;;;;;;;;;;;22.66;30.22;97714.22;5079797;28;1326;-80
2023/06/27 09:13:38;;;;;;;;;;;;;;;22.64;30.12;97705.38;5077798;28;1909;-80
2023/06/27 09:16:04;;;;;;;;;;;;;;;22.82;29.90;97708.34;5047385;28;1237;-79
2023/06/27 09:18:30;;;;;;;;;;;;;;;22.74;29.99;97701.38;5077668;28;1002;-80
2023/06/27 09:20:56;;;;;;;;;;;;;;;22.29;30.55;97702.53;5097279;28;975;-79
2023/06/27 09:23:21;;;;;;;;;;;;;;;22.76;29.74;97706.56;5057288;28;1268;-79
2023/06/27 09:26:04;;;;;;;;;;;;;;;22.78;29.78;97702.00;5017728;28;1092;-80
2023/06/27 09:28:29;;;;;;;;;;;;;;;22.91;29.54;97706.88;5022149;28;901;-79
2023/06/27 09:30:55;;;;;;;;;;;;;;;22.95;29.30;97699.00;5026890;28;923;-79
2023/06/27 09:33:21;;;;;;;;;;;;;;;22.83;29.59;97701.41;5025466;28;1898;-79
2023/06/27 09:35:47;;;;;;;;;;;;;;;22.73;29.98;97699.75;5043666;28;964;-79
2023/06/27 09:38:12;;;;;;;;;;;;;;;22.74;30.03;97692.03;5061830;28;1213;-79
2023/06/27 09:40:38;;;;;;;;;;;;;;;22.78;29.89;97684.22;5079958;28;963;-80
2023/06/27 09:43:06;;;;;;;;;;;;;;;22.68;29.97;97683.34;5078674;28;978;-80
2023/06/27 09:45:32;;;;;;;;;;;;;;;22.66;29.89;97685.84;5079688;28;957;-80
2023/06/27 09:47:58;;;;;;;;;;;;;;;22.45;30.58;97686.63;5079044;28;1156;-80
2023/06/27 09:50:24;;;;;;;;;;;;;;;22.87;29.97;97690.75;5062334;28;861;-80
2023/06/27 09:52:51;;;;;;;;;;;;;;;22.77;30.00;97691.13;5082267;28;1975;-80
2023/06/27 09:55:18;;;;;;;;;;;;;;;22.95;29.34;97690.50;5079459;28;840;-80
2023/06/27 09:57:44;;;;;;;;;;;;;;;22.84;29.71;97697.31;5065242;28;845;-80
2023/06/27 10:00:11;;;;;;;;;;;;;;;22.60;30.02;97685.66;5064962;28;1022;-79
2023/06/27 10:02:36;;;;;;;;;;;;;;;22.76;29.88;97689.56;5025060;28;976;-79
2023/06/27 10:05:03;;;;;;;;;;;;;;;22.88;29.50;97703.69;5008226;28;1100;-80
2023/06/27 10:07:29;;;;;;;;;;;;;;;22.73;29.92;97699.75;5009542;28;836;-80
2023/06/27 10:09:54;;;;;;;;;;;;;;;22.54;30.26;97695.22;5008143;28;871;-80
2023/06/27 10:12:20;;;;;;;;;;;;;;;22.75;29.91;97688.78;5025122;28;949;-79
2023/06/27 10:14:46;;;;;;;;;;;;;;;22.59;30.12;97688.94;5024039;28;2001;-80
2023/06/27 10:17:17;;;;;;;;;;;;;;;22.75;29.92;97683.09;5010734;28;1812;-79
2023/06/27 10:19:42;;;;;;;;;;;;;;;22.69;30.00;97689.78;5025181;28;1098;-79
2023/06/27 10:22:08;;;;;;;;;;;;;;;22.56;30.26;97684.19;5025462;28;863;-79
2023/06/27 10:24:34;;;;;;;;;;;;;;;22.63;30.20;97690.38;5008229;28;1274;-80
2023/06/27 10:27:00;;;;;;;;;;;;;;;22.57;30.25;97688.59;5042268;28;1485;-80
2023/06/27 10:29:32;;;;;;;;;;;;;;;22.73;30.05;97682.75;5023837;28;964;-80
2023/06/27 10:31:57;;;;;;;;;;;;;;;22.68;29.95;97680.50;5042435;28;1007;-79
2023/06/27 10:34:29;;;;;;;;;;;;;;;22.87;29.75;97685.06;5040524;28;1922;-80
2023/06/27 10:36:54;;;;;;;;;;;;;;;22.97;29.53;97682.34;5036665;28;856;-79
2023/06/27 10:39:29;;;;;;;;;;;;;;;22.97;29.58;97682.34;5021823;28;999;-80
2023/06/27 10:42:01;;;;;;;;;;;;;;;22.72;29.84;97675.50;5038164;28;1053;-79
2023/06/27 10:44:27;;;;;;;;;;;;;;;22.81;30.01;97681.25;5019770;28;1071;-79
2023/06/27 10:47:15;;;;;;;;;;;;;;;22.98;29.75;97678.25;5018424;28;1282;-79
2023/06/27 10:49:41;;;;;;;;;;;;;;;22.72;29.78;97678.34;4980816;28;1031;-79
2023/06/27 10:52:06;;;;;;;;;;;;;;;22.55;30.33;97671.28;5017993;28;1131;-79
2023/06/27 10:54:32;;;;;;;;;;;;;;;22.46;30.67;97671.97;5014545;28;1994;-80
2023/06/27 10:56:58;;;;;;;;;;;;;;;22.76;30.03;97673.31;4985584;28;954;-79
2023/06/27 10:59:24;;;;;;;;;;;;;;;22.74;30.12;97667.34;4985028;28;1122;-79
2023/06/27 11:01:50;;;;;;;;;;;;;;;22.73;30.23;97662.88;5001281;28;967;-79
2023/06/27 11:04:16;;;;;;;;;;;;;;;22.57;30.37;97677.25;5000392;28;983;-79
2023/06/27 11:06:42;;;;;;;;;;;;;;;22.65;30.39;97672.94;4969240;28;1209;-79
2023/06/27 11:09:12;;;;;;;;;;;;;;;22.67;30.21;97676.09;5003545;28;1314;-79
2023/06/27 11:11:38;;;;;;;;;;;;;;;22.65;30.45;97672.94;5005266;28;869;-79
2023/06/27 11:14:07;;;;;;;;;;;;;;;22.57;30.64;97671.59;5036921;28;1914;-79
2023/06/27 11:16:33;;;;;;;;;;;;;;;22.53;30.71;97670.91;5021477;28;1209;-79
2023/06/27 11:18:59;;;;;;;;;;;;;;;22.34;30.98;97658.63;5003642;28;890;-79
2023/06/27 11:21:24;;;;;;;;;;;;;;;22.68;30.39;97671.19;5021352;28;1091;-79
2023/06/27 11:23:50;;;;;;;;;;;;;;;22.45;30.80;97669.59;5020299;28;931;-79
2023/06/27 11:26:15;;;;;;;;;;;;;;;22.74;30.31;97658.81;5034019;28;1357;-79
2023/06/27 11:28:41;;;;;;;;;;;;;;;22.56;30.54;97658.66;5076673;28;1020;-79
2023/06/27 11:31:07;;;;;;;;;;;;;;;22.59;30.77;97663.44;5078664;28;861;-79
2023/06/27 11:33:32;;;;;;;;;;;;;;;22.56;30.76;97661.50;5076340;28;1910;-79
2023/06/27 11:35:58;;;;;;;;;;;;;;;22.64;30.63;97660.00;5061686;28;1654;-79
2023/06/27 11:38:24;;;;;;;;;;;;;;;22.62;30.67;97651.16;5076697;28;1108;-79
2023/06/27 11:40:51;;;;;;;;;;;;;;;22.73;30.50;97642.25;5078592;28;1223;-79
2023/06/27 11:43:18;;;;;;;;;;;;;;;22.70;30.47;97646.81;5076354;28;1000;-79
2023/06/27 11:45:47;;;;;;;;;;;;;;;22.73;30.46;97640.19;5077664;28;876;-79
2023/06/27 11:48:12;;;;;;;;;;;;;;;22.83;30.38;97638.22;5059149;28;1277;-79
2023/06/27 11:50:52;;;;;;;;;;;;;;;22.69;30.34;97639.56;5061230;28;1208;-79
2023/06/27 11:53:19;;;;;;;;;;;;;;;22.72;30.44;97638.63;5059227;28;1914;-79
2023/06/27 11:55:44;;;;;;;;;;;;;;;22.76;30.15;97636.47;5077820;28;997;-79
2023/06/27 11:58:10;;;;;;;;;;;;;;;22.90;30.12;97645.69;5076989;28;1049;-79
2023/06/27 12:03:30;;;;;;;;;;;;;;;23.54;30.52;97637.56;5135690;23;2125;-78
2023/06/27 12:05:56;;;;;;;;;;;;;;;23.66;31.84;97633.84;5024997;28;742;-78
2023/06/27 12:08:32;;;;;;;;;;;;;;;22.09;32.57;97391.09;5159322;23;3668;-73
2023/06/27 12:11:00;;;;;;;;;;;;;;;24.02;32.47;97629.50;5019253;28;1152;-73
2023/06/27 12:13:30;;;;;;;;;;;;;;;23.07;33.72;97641.41;5019130;28;1902;-73
2023/06/27 12:15:55;;;;;;;;;;;;;;;22.59;33.80;97632.25;5034954;28;764;-73
2023/06/27 12:18:26;;;;;;;;;;;;;;;22.25;34.13;97639.50;5035455;28;821;-73
2023/06/27 12:20:52;;;;;;;;;;;;;;;22.51;33.07;97639.41;5019907;28;819;-73
2023/06/27 12:23:18;;;;;;;;;;;;;;;22.88;31.72;97629.94;5035530;28;739;-73
2023/06/27 12:25:44;;;;;;;;;;;;;;;22.80;31.64;97627.81;5035397;28;762;-74
2023/06/27 12:28:10;;;;;;;;;;;;;;;22.97;31.09;97620.69;5002738;28;1269;-73
2023/06/27 12:30:35;;;;;;;;;;;;;;;22.96;30.70;97624.00;5018634;28;1264;-73
2023/06/27 12:33:01;;;;;;;;;;;;;;;22.69;30.88;97611.22;5013927;28;1977;-72
2023/06/27 12:35:26;;;;;;;;;;;;;;;22.75;30.83;97615.03;4997955;28;778;-74
2023/06/27 12:37:52;;;;;;;;;;;;;;;22.97;29.88;97605.72;5014504;28;797;-73
2023/06/27 12:40:17;;;;;;;;;;;;;;;22.65;30.08;97610.53;5014215;28;897;-73
2023/06/27 12:42:43;;;;;;;;;;;;;;;22.81;29.66;97607.50;4997887;28;1290;-73
2023/06/27 12:45:12;;;;;;;;;;;;;;;22.72;29.59;97610.25;4998172;28;986;-73
2023/06/27 12:47:41;;;;;;;;;;;;;;;23.01;29.26;97607.19;4997983;28;1057;-74
2023/06/27 12:50:08;;;;;;;;;;;;;;;22.91;28.89;97610.44;5013991;28;881;-74
2023/06/27 12:52:33;;;;;;;;;;;;;;;22.67;29.25;97618.56;4998091;28;999;-73
2023/06/27 12:54:58;;;;;;;;;;;;;;;22.85;28.82;97616.66;4981533;28;1907;-74
2023/06/27 12:57:24;;;;;;;;;;;;;;;22.61;28.73;97621.22;5014412;28;969;-74
2023/06/27 12:59:49;;;;;;;;;;;;;;;22.51;28.90;97611.84;4949667;28;1592;-74